sensor_id;sensor_type;location;lat;lon;timestamp;temperature;humidity
4655;DHT22;2340;47.814;9.798;2023-03-04T00:02:12;1.20;99.90
4655;DHT22;2340;47.814;9.798;2023-03-04T00:04:38;1.30;99.90
4655;DHT22;2340;47.814;9.798;2023-03-04T00:07:04;0.90;99.90
4655;DHT22;2340;47.814;9.798;2023-03-04T00:09:29;1.20;99.90
4655;DHT22;2340;47.814;9.798;2023-03-04T00:11:54;1.20;99.90
4655;DHT22;2340;47.814;9.798;2023-03-04T00:14:20;1.20;99.90
4655;DHT22;2340;47.814;9.798;2023-03-04T00:16:46;1.10;99.90
4655;DHT22;2340;47.814;9.798;2023-03-04T00:19:13;1.10;99.90
4655;DHT22;2340;47.814;9.798;2023-03-04T00:21:39;1.10;99.90
4655;DHT22;2340;47.814;9.798;2023-03-04T00:24:04;1.00;99.90
4655;DHT22;2340;47.814;9.798;2023-03-04T00:26:31;1.00;99.90
4655;DHT22;2340;47.814;9.798;2023-03-04T00:28:56;1.00;99.90
4655;DHT22;2340;47.814;9.798;2023-03-04T00:31:22;0.90;99.90
4655;DHT22;2340;47.814;9.798;2023-03-04T00:33:47;0.90;99.90
4655;DHT22;2340;47.814;9.798;2023-03-04T00:36:13;0.80;99.90
4655;DHT22;2340;47.814;9.798;2023-03-04T00:38:38;0.80;99.90
4655;DHT22;2340;47.814;9.798;2023-03-04T00:41:04;0.70;99.90
4655;DHT22;2340;47.814;9.798;2023-03-04T00:43:29;0.70;99.90
4655;DHT22;2340;47.814;9.798;2023-03-04T00:45:56;0.70;99.90
4655;DHT22;2340;47.814;9.798;2023-03-04T00:48:22;0.60;99.90
4655;DHT22;2340;47.814;9.798;2023-03-04T00:50:47;0.60;99.90
4655;DHT22;2340;47.814;9.798;2023-03-04T00:53:13;0.60;99.90
4655;DHT22;2340;47.814;9.798;2023-03-04T00:55:38;0.50;99.90
4655;DHT22;2340;47.814;9.798;2023-03-04T00:58:04;0.50;99.90
4655;DHT22;2340;47.814;9.798;2023-03-04T01:00:30;0.50;99.90
4655;DHT22;2340;47.814;9.798;2023-03-04T01:02:55;0.40;99.90
4655;DHT22;2340;47.814;9.798;2023-03-04T01:05:21;0.50;99.90
4655;DHT22;2340;47.814;9.798;2023-03-04T01:07:46;0.50;99.90
4655;DHT22;2340;47.814;9.798;2023-03-04T01:10:12;0.50;99.90
4655;DHT22;2340;47.814;9.798;2023-03-04T01:12:38;0.50;99.90
4655;DHT22;2340;47.814;9.798;2023-03-04T01:15:07;0.60;99.90
4655;DHT22;2340;47.814;9.798;2023-03-04T01:17:33;0.60;99.90
4655;DHT22;2340;47.814;9.798;2023-03-04T01:19:59;0.60;99.90
4655;DHT22;2340;47.814;9.798;2023-03-04T01:22:24;0.60;99.90
4655;DHT22;2340;47.814;9.798;2023-03-04T01:24:50;0.50;99.90
4655;DHT22;2340;47.814;9.798;2023-03-04T01:27:15;0.50;99.90
4655;DHT22;2340;47.814;9.798;2023-03-04T01:29:41;0.50;99.90
4655;DHT22;2340;47.814;9.798;2023-03-04T01:32:06;0.50;99.90
4655;DHT22;2340;47.814;9.798;2023-03-04T01:34:32;0.50;99.90
4655;DHT22;2340;47.814;9.798;2023-03-04T01:36:57;0.40;99.90
4655;DHT22;2340;47.814;9.798;2023-03-04T01:39:23;0.40;99.90
4655;DHT22;2340;47.814;9.798;2023-03-04T01:41:48;0.40;99.90
4655;DHT22;2340;47.814;9.798;2023-03-04T01:44:14;0.40;99.90
4655;DHT22;2340;47.814;9.798;2023-03-04T01:46:40;0.30;99.90
4655;DHT22;2340;47.814;9.798;2023-03-04T01:49:08;0.30;99.90
4655;DHT22;2340;47.814;9.798;2023-03-04T01:51:34;0.30;99.90
4655;DHT22;2340;47.814;9.798;2023-03-04T01:53:59;0.40;99.90
4655;DHT22;2340;47.814;9.798;2023-03-04T01:56:29;0.40;99.90
4655;DHT22;2340;47.814;9.798;2023-03-04T01:59:08;0.40;99.90
4655;DHT22;2340;47.814;9.798;2023-03-04T02:01:34;0.40;99.90
4655;DHT22;2340;47.814;9.798;2023-03-04T02:04:00;0.40;99.90
4655;DHT22;2340;47.814;9.798;2023-03-04T02:06:26;0.40;99.90
4655;DHT22;2340;47.814;9.798;2023-03-04T02:08:51;0.40;99.90
4655;DHT22;2340;47.814;9.798;2023-03-04T02:11:17;0.30;99.90
4655;DHT22;2340;47.814;9.798;2023-03-04T02:13:42;0.40;99.90
4655;DHT22;2340;47.814;9.798;2023-03-04T02:16:08;0.30;99.90
4655;DHT22;2340;47.814;9.798;2023-03-04T02:18:33;0.30;99.90
4655;DHT22;2340;47.814;9.798;2023-03-04T02:21:16;0.30;99.90
4655;DHT22;2340;47.814;9.798;2023-03-04T02:26:23;0.30;99.90
4655;DHT22;2340;47.814;9.798;2023-03-04T02:28:49;0.40;99.90
4655;DHT22;2340;47.814;9.798;2023-03-04T02:31:19;0.40;99.90
4655;DHT22;2340;47.814;9.798;2023-03-04T02:33:45;0.40;99.90
4655;DHT22;2340;47.814;9.798;2023-03-04T02:36:11;0.50;99.90
4655;DHT22;2340;47.814;9.798;2023-03-04T02:38:37;0.40;99.90
4655;DHT22;2340;47.814;9.798;2023-03-04T02:41:02;0.50;99.90
4655;DHT22;2340;47.814;9.798;2023-03-04T02:43:29;0.40;99.90
4655;DHT22;2340;47.814;9.798;2023-03-04T02:45:54;0.40;99.90
4655;DHT22;2340;47.814;9.798;2023-03-04T02:48:20;0.40;99.90
4655;DHT22;2340;47.814;9.798;2023-03-04T02:50:47;0.40;99.90
4655;DHT22;2340;47.814;9.798;2023-03-04T02:53:14;0.40;99.90
4655;DHT22;2340;47.814;9.798;2023-03-04T02:55:39;0.40;99.90
4655;DHT22;2340;47.814;9.798;2023-03-04T02:58:06;0.30;99.90
4655;DHT22;2340;47.814;9.798;2023-03-04T03:00:32;0.40;99.90
4655;DHT22;2340;47.814;9.798;2023-03-04T03:02:57;0.40;99.90
4655;DHT22;2340;47.814;9.798;2023-03-04T03:05:24;0.40;99.90
4655;DHT22;2340;47.814;9.798;2023-03-04T03:07:50;0.40;99.90
4655;DHT22;2340;47.814;9.798;2023-03-04T03:10:16;0.40;99.90
4655;DHT22;2340;47.814;9.798;2023-03-04T03:12:41;0.30;99.90
4655;DHT22;2340;47.814;9.798;2023-03-04T03:15:07;0.30;99.90
4655;DHT22;2340;47.814;9.798;2023-03-04T03:17:32;0.30;99.90
4655;DHT22;2340;47.814;9.798;2023-03-04T03:19:58;0.20;99.90
4655;DHT22;2340;47.814;9.798;2023-03-04T03:22:23;0.20;99.90
4655;DHT22;2340;47.814;9.798;2023-03-04T03:24:49;0.20;99.90
4655;DHT22;2340;47.814;9.798;2023-03-04T03:27:14;0.20;99.90
4655;DHT22;2340;47.814;9.798;2023-03-04T03:29:40;0.10;99.90
4655;DHT22;2340;47.814;9.798;2023-03-04T03:32:05;0.10;99.90
4655;DHT22;2340;47.814;9.798;2023-03-04T03:34:31;0.00;99.90
4655;DHT22;2340;47.814;9.798;2023-03-04T03:36:56;0.00;99.90
4655;DHT22;2340;47.814;9.798;2023-03-04T03:39:22;-0.10;99.90
4655;DHT22;2340;47.814;9.798;2023-03-04T03:41:48;-0.10;99.90
4655;DHT22;2340;47.814;9.798;2023-03-04T03:44:14;-0.10;99.90
4655;DHT22;2340;47.814;9.798;2023-03-04T03:46:39;-0.10;99.90
4655;DHT22;2340;47.814;9.798;2023-03-04T03:49:05;-0.10;99.90
4655;DHT22;2340;47.814;9.798;2023-03-04T03:51:30;-0.10;99.90
4655;DHT22;2340;47.814;9.798;2023-03-04T03:53:56;0.00;99.90
4655;DHT22;2340;47.814;9.798;2023-03-04T03:56:21;0.00;99.90
4655;DHT22;2340;47.814;9.798;2023-03-04T03:58:47;0.00;99.90
4655;DHT22;2340;47.814;9.798;2023-03-04T04:01:12;0.00;99.90
4655;DHT22;2340;47.814;9.798;2023-03-04T04:03:38;0.00;99.90
4655;DHT22;2340;47.814;9.798;2023-03-04T04:06:03;0.00;99.90
4655;DHT22;2340;47.814;9.798;2023-03-04T04:08:29;0.00;99.90
4655;DHT22;2340;47.814;9.798;2023-03-04T04:10:55;-0.10;99.90
4655;DHT22;2340;47.814;9.798;2023-03-04T04:13:20;-0.10;99.90
4655;DHT22;2340;47.814;9.798;2023-03-04T04:15:46;-0.10;99.90
4655;DHT22;2340;47.814;9.798;2023-03-04T04:18:11;-0.10;99.90
4655;DHT22;2340;47.814;9.798;2023-03-04T04:20:37;-0.10;99.90
4655;DHT22;2340;47.814;9.798;2023-03-04T04:23:02;-0.10;99.90
4655;DHT22;2340;47.814;9.798;2023-03-04T04:25:28;-0.20;99.90
4655;DHT22;2340;47.814;9.798;2023-03-04T04:27:53;-0.20;99.90
4655;DHT22;2340;47.814;9.798;2023-03-04T04:30:19;-0.20;99.90
4655;DHT22;2340;47.814;9.798;2023-03-04T04:32:44;-0.20;99.90
4655;DHT22;2340;47.814;9.798;2023-03-04T04:35:10;-0.20;99.90
4655;DHT22;2340;47.814;9.798;2023-03-04T04:37:35;-0.20;99.90
4655;DHT22;2340;47.814;9.798;2023-03-04T04:40:01;-0.20;99.90
4655;DHT22;2340;47.814;9.798;2023-03-04T04:42:27;-0.20;99.90
4655;DHT22;2340;47.814;9.798;2023-03-04T04:44:53;-0.30;99.90
4655;DHT22;2340;47.814;9.798;2023-03-04T04:47:18;-0.20;99.90
4655;DHT22;2340;47.814;9.798;2023-03-04T04:49:44;-0.30;99.90
4655;DHT22;2340;47.814;9.798;2023-03-04T04:52:09;-0.30;99.90
4655;DHT22;2340;47.814;9.798;2023-03-04T04:54:35;-0.30;99.90
4655;DHT22;2340;47.814;9.798;2023-03-04T04:57:00;-0.30;99.90
4655;DHT22;2340;47.814;9.798;2023-03-04T04:59:26;-0.30;99.90
4655;DHT22;2340;47.814;9.798;2023-03-04T05:01:51;-0.30;99.90
4655;DHT22;2340;47.814;9.798;2023-03-04T05:04:17;-0.30;99.90
4655;DHT22;2340;47.814;9.798;2023-03-04T05:06:42;-0.30;99.90
4655;DHT22;2340;47.814;9.798;2023-03-04T05:09:08;-0.30;99.90
4655;DHT22;2340;47.814;9.798;2023-03-04T05:11:33;-0.30;99.90
4655;DHT22;2340;47.814;9.798;2023-03-04T05:13:59;-0.40;99.90
4655;DHT22;2340;47.814;9.798;2023-03-04T05:16:24;-0.30;99.90
4655;DHT22;2340;47.814;9.798;2023-03-04T05:18:50;-0.30;99.90
4655;DHT22;2340;47.814;9.798;2023-03-04T05:21:15;-0.20;99.90
4655;DHT22;2340;47.814;9.798;2023-03-04T05:23:41;-0.20;99.90
4655;DHT22;2340;47.814;9.798;2023-03-04T05:26:07;-0.20;99.90
4655;DHT22;2340;47.814;9.798;2023-03-04T05:28:34;-0.10;99.90
4655;DHT22;2340;47.814;9.798;2023-03-04T05:30:59;-0.20;99.90
4655;DHT22;2340;47.814;9.798;2023-03-04T05:33:25;-0.20;99.90
4655;DHT22;2340;47.814;9.798;2023-03-04T05:35:50;-0.20;99.90
4655;DHT22;2340;47.814;9.798;2023-03-04T05:38:17;-0.10;99.90
4655;DHT22;2340;47.814;9.798;2023-03-04T05:40:43;-0.10;99.90
4655;DHT22;2340;47.814;9.798;2023-03-04T05:43:09;-0.10;99.90
4655;DHT22;2340;47.814;9.798;2023-03-04T05:45:35;-0.10;99.90
4655;DHT22;2340;47.814;9.798;2023-03-04T05:48:02;-0.10;99.90
4655;DHT22;2340;47.814;9.798;2023-03-04T05:50:27;-0.10;99.90
4655;DHT22;2340;47.814;9.798;2023-03-04T05:52:53;-0.10;99.90
4655;DHT22;2340;47.814;9.798;2023-03-04T05:55:19;-0.10;99.90
4655;DHT22;2340;47.814;9.798;2023-03-04T05:57:44;-0.10;99.90
4655;DHT22;2340;47.814;9.798;2023-03-04T06:00:10;0.00;99.90
4655;DHT22;2340;47.814;9.798;2023-03-04T06:02:37;0.00;99.90
4655;DHT22;2340;47.814;9.798;2023-03-04T06:05:03;0.00;99.90
4655;DHT22;2340;47.814;9.798;2023-03-04T06:07:29;0.00;99.90
4655;DHT22;2340;47.814;9.798;2023-03-04T06:09:55;0.00;99.90
4655;DHT22;2340;47.814;9.798;2023-03-04T06:12:20;0.00;99.90
4655;DHT22;2340;47.814;9.798;2023-03-04T06:14:46;0.00;99.90
4655;DHT22;2340;47.814;9.798;2023-03-04T06:17:11;0.00;99.90
4655;DHT22;2340;47.814;9.798;2023-03-04T06:19:37;0.10;99.90
4655;DHT22;2340;47.814;9.798;2023-03-04T06:22:03;0.10;99.90
4655;DHT22;2340;47.814;9.798;2023-03-04T06:24:28;0.10;99.90
4655;DHT22;2340;47.814;9.798;2023-03-04T06:26:54;0.10;99.90
4655;DHT22;2340;47.814;9.798;2023-03-04T06:29:20;0.10;99.90
4655;DHT22;2340;47.814;9.798;2023-03-04T06:31:45;0.20;99.90
4655;DHT22;2340;47.814;9.798;2023-03-04T06:34:11;0.20;99.90
4655;DHT22;2340;47.814;9.798;2023-03-04T06:36:36;0.20;99.90
4655;DHT22;2340;47.814;9.798;2023-03-04T06:39:05;0.30;99.90
4655;DHT22;2340;47.814;9.798;2023-03-04T06:41:31;0.20;99.90
4655;DHT22;2340;47.814;9.798;2023-03-04T06:43:57;0.20;99.90
4655;DHT22;2340;47.814;9.798;2023-03-04T06:46:22;0.20;99.90
4655;DHT22;2340;47.814;9.798;2023-03-04T06:48:48;0.20;99.90
4655;DHT22;2340;47.814;9.798;2023-03-04T06:51:13;0.20;99.90
4655;DHT22;2340;47.814;9.798;2023-03-04T06:53:39;0.20;99.90
4655;DHT22;2340;47.814;9.798;2023-03-04T06:56:06;0.20;99.90
4655;DHT22;2340;47.814;9.798;2023-03-04T06:58:32;0.20;99.90
4655;DHT22;2340;47.814;9.798;2023-03-04T07:01:07;0.20;99.90
4655;DHT22;2340;47.814;9.798;2023-03-04T07:03:33;0.30;99.90
4655;DHT22;2340;47.814;9.798;2023-03-04T07:05:58;0.30;99.90
4655;DHT22;2340;47.814;9.798;2023-03-04T07:08:24;0.40;99.90
4655;DHT22;2340;47.814;9.798;2023-03-04T07:10:49;0.30;99.90
4655;DHT22;2340;47.814;9.798;2023-03-04T07:13:15;0.50;99.90
4655;DHT22;2340;47.814;9.798;2023-03-04T07:15:40;0.50;99.90
4655;DHT22;2340;47.814;9.798;2023-03-04T07:18:06;0.60;99.90
4655;DHT22;2340;47.814;9.798;2023-03-04T07:20:31;0.50;99.90
4655;DHT22;2340;47.814;9.798;2023-03-04T07:22:57;0.60;99.90
4655;DHT22;2340;47.814;9.798;2023-03-04T07:25:22;0.60;99.90
4655;DHT22;2340;47.814;9.798;2023-03-04T07:27:48;0.50;99.90
4655;DHT22;2340;47.814;9.798;2023-03-04T07:30:13;0.50;99.90
4655;DHT22;2340;47.814;9.798;2023-03-04T07:32:39;0.60;99.90
4655;DHT22;2340;47.814;9.798;2023-03-04T07:35:05;0.60;99.90
4655;DHT22;2340;47.814;9.798;2023-03-04T07:37:30;0.60;99.90
4655;DHT22;2340;47.814;9.798;2023-03-04T07:39:56;0.60;99.90
4655;DHT22;2340;47.814;9.798;2023-03-04T07:42:21;0.70;99.90
4655;DHT22;2340;47.814;9.798;2023-03-04T07:44:47;0.80;99.90
4655;DHT22;2340;47.814;9.798;2023-03-04T07:47:12;0.70;99.90
4655;DHT22;2340;47.814;9.798;2023-03-04T07:49:38;0.90;99.90
4655;DHT22;2340;47.814;9.798;2023-03-04T07:52:04;0.80;99.90
4655;DHT22;2340;47.814;9.798;2023-03-04T07:54:30;0.80;99.90
4655;DHT22;2340;47.814;9.798;2023-03-04T07:56:55;0.80;99.90
4655;DHT22;2340;47.814;9.798;2023-03-04T07:59:21;0.80;99.90
4655;DHT22;2340;47.814;9.798;2023-03-04T08:01:46;0.80;99.90
4655;DHT22;2340;47.814;9.798;2023-03-04T08:04:12;0.90;99.90
4655;DHT22;2340;47.814;9.798;2023-03-04T08:06:39;0.90;99.90
4655;DHT22;2340;47.814;9.798;2023-03-04T08:09:05;0.90;99.90
4655;DHT22;2340;47.814;9.798;2023-03-04T08:11:32;0.90;99.90
4655;DHT22;2340;47.814;9.798;2023-03-04T08:13:58;0.90;99.90
4655;DHT22;2340;47.814;9.798;2023-03-04T08:16:23;1.00;99.90
4655;DHT22;2340;47.814;9.798;2023-03-04T08:18:52;1.10;99.90
4655;DHT22;2340;47.814;9.798;2023-03-04T08:21:19;1.10;99.90
4655;DHT22;2340;47.814;9.798;2023-03-04T08:23:46;1.20;99.90
4655;DHT22;2340;47.814;9.798;2023-03-04T08:26:13;1.20;99.90
4655;DHT22;2340;47.814;9.798;2023-03-04T08:28:39;1.30;99.90
4655;DHT22;2340;47.814;9.798;2023-03-04T08:31:05;1.40;99.90
4655;DHT22;2340;47.814;9.798;2023-03-04T08:33:31;1.50;99.90
4655;DHT22;2340;47.814;9.798;2023-03-04T08:35:57;1.50;99.90
4655;DHT22;2340;47.814;9.798;2023-03-04T08:38:22;1.60;99.90
4655;DHT22;2340;47.814;9.798;2023-03-04T08:40:52;1.60;99.90
4655;DHT22;2340;47.814;9.798;2023-03-04T08:43:18;1.70;99.90
4655;DHT22;2340;47.814;9.798;2023-03-04T08:45:43;1.80;99.90
4655;DHT22;2340;47.814;9.798;2023-03-04T08:48:09;1.80;99.90
4655;DHT22;2340;47.814;9.798;2023-03-04T08:50:35;1.90;99.90
4655;DHT22;2340;47.814;9.798;2023-03-04T08:53:00;2.10;99.90
4655;DHT22;2340;47.814;9.798;2023-03-04T08:55:26;2.10;99.90
4655;DHT22;2340;47.814;9.798;2023-03-04T08:57:51;2.20;99.90
4655;DHT22;2340;47.814;9.798;2023-03-04T09:00:17;2.20;99.90
4655;DHT22;2340;47.814;9.798;2023-03-04T09:02:43;2.40;99.90
4655;DHT22;2340;47.814;9.798;2023-03-04T09:05:08;2.40;99.90
4655;DHT22;2340;47.814;9.798;2023-03-04T09:07:34;2.70;99.90
4655;DHT22;2340;47.814;9.798;2023-03-04T09:09:59;2.70;99.90
4655;DHT22;2340;47.814;9.798;2023-03-04T09:12:25;2.80;99.90
4655;DHT22;2340;47.814;9.798;2023-03-04T09:14:50;2.90;99.90
4655;DHT22;2340;47.814;9.798;2023-03-04T09:17:16;2.90;99.90
4655;DHT22;2340;47.814;9.798;2023-03-04T09:19:41;3.00;99.90
4655;DHT22;2340;47.814;9.798;2023-03-04T09:22:07;3.10;99.90
4655;DHT22;2340;47.814;9.798;2023-03-04T09:24:32;3.20;99.90
4655;DHT22;2340;47.814;9.798;2023-03-04T09:26:58;3.40;99.90
4655;DHT22;2340;47.814;9.798;2023-03-04T09:29:24;3.40;99.90
4655;DHT22;2340;47.814;9.798;2023-03-04T09:31:49;3.50;99.90
4655;DHT22;2340;47.814;9.798;2023-03-04T09:34:15;3.60;99.90
4655;DHT22;2340;47.814;9.798;2023-03-04T09:36:40;3.80;99.90
4655;DHT22;2340;47.814;9.798;2023-03-04T09:39:06;3.90;99.90
4655;DHT22;2340;47.814;9.798;2023-03-04T09:41:51;4.00;99.90
4655;DHT22;2340;47.814;9.798;2023-03-04T09:44:28;4.20;99.90
4655;DHT22;2340;47.814;9.798;2023-03-04T09:46:55;4.60;99.90
4655;DHT22;2340;47.814;9.798;2023-03-04T09:49:22;5.50;99.90
4655;DHT22;2340;47.814;9.798;2023-03-04T09:51:53;6.40;99.90
4655;DHT22;2340;47.814;9.798;2023-03-04T09:54:42;7.10;99.90
4655;DHT22;2340;47.814;9.798;2023-03-04T10:00:06;7.10;99.90
4655;DHT22;2340;47.814;9.798;2023-03-04T10:02:43;7.00;99.90
4655;DHT22;2340;47.814;9.798;2023-03-04T10:05:09;6.60;99.90
4655;DHT22;2340;47.814;9.798;2023-03-04T10:07:37;6.50;99.90
4655;DHT22;2340;47.814;9.798;2023-03-04T10:10:18;6.40;99.90
4655;DHT22;2340;47.814;9.798;2023-03-04T10:12:46;6.40;99.90
4655;DHT22;2340;47.814;9.798;2023-03-04T10:17:48;6.20;99.90
4655;DHT22;2340;47.814;9.798;2023-03-04T10:20:23;6.00;99.90
4655;DHT22;2340;47.814;9.798;2023-03-04T10:25:24;7.10;99.90
4655;DHT22;2340;47.814;9.798;2023-03-04T10:27:51;7.70;99.90
4655;DHT22;2340;47.814;9.798;2023-03-04T10:32:50;8.00;99.90
4655;DHT22;2340;47.814;9.798;2023-03-04T10:35:15;7.90;99.90
4655;DHT22;2340;47.814;9.798;2023-03-04T10:37:44;7.70;99.90
4655;DHT22;2340;47.814;9.798;2023-03-04T10:40:23;7.50;99.90
4655;DHT22;2340;47.814;9.798;2023-03-04T10:42:50;7.40;99.90
4655;DHT22;2340;47.814;9.798;2023-03-04T10:45:20;7.20;99.90
4655;DHT22;2340;47.814;9.798;2023-03-04T10:47:53;7.30;99.90
4655;DHT22;2340;47.814;9.798;2023-03-04T10:50:23;7.40;99.90
4655;DHT22;2340;47.814;9.798;2023-03-04T10:52:49;7.50;99.90
4655;DHT22;2340;47.814;9.798;2023-03-04T10:55:18;7.70;99.90
4655;DHT22;2340;47.814;9.798;2023-03-04T10:57:45;7.70;99.90
4655;DHT22;2340;47.814;9.798;2023-03-04T11:02:47;7.90;99.90
4655;DHT22;2340;47.814;9.798;2023-03-04T11:07:40;8.10;99.90
4655;DHT22;2340;47.814;9.798;2023-03-04T11:10:06;8.20;99.90
4655;DHT22;2340;47.814;9.798;2023-03-04T11:12:33;8.20;99.90
4655;DHT22;2340;47.814;9.798;2023-03-04T11:14:59;8.30;99.90
4655;DHT22;2340;47.814;9.798;2023-03-04T11:17:26;8.30;99.90
4655;DHT22;2340;47.814;9.798;2023-03-04T11:19:57;8.50;99.90
4655;DHT22;2340;47.814;9.798;2023-03-04T11:22:24;8.60;99.90
4655;DHT22;2340;47.814;9.798;2023-03-04T11:24:56;8.80;99.90
4655;DHT22;2340;47.814;9.798;2023-03-04T11:27:33;8.80;99.90
4655;DHT22;2340;47.814;9.798;2023-03-04T11:30:44;8.70;99.90
4655;DHT22;2340;47.814;9.798;2023-03-04T11:32:49;8.80;99.90
4655;DHT22;2340;47.814;9.798;2023-03-04T11:35:30;8.90;99.90
4655;DHT22;2340;47.814;9.798;2023-03-04T11:40:32;8.60;99.90
4655;DHT22;2340;47.814;9.798;2023-03-04T11:43:15;8.60;99.90
4655;DHT22;2340;47.814;9.798;2023-03-04T11:45:48;8.80;99.90
4655;DHT22;2340;47.814;9.798;2023-03-04T11:51:00;9.30;99.90
4655;DHT22;2340;47.814;9.798;2023-03-04T11:53:39;9.60;99.90
4655;DHT22;2340;47.814;9.798;2023-03-04T12:01:27;9.40;99.90
4655;DHT22;2340;47.814;9.798;2023-03-04T12:22:25;10.50;99.90
4655;DHT22;2340;47.814;9.798;2023-03-04T12:27:33;10.80;99.90
4655;DHT22;2340;47.814;9.798;2023-03-04T12:32:46;11.90;99.90
4655;DHT22;2340;47.814;9.798;2023-03-04T12:36:21;12.90;99.90
4655;DHT22;2340;47.814;9.798;2023-03-04T12:43:45;12.90;99.90
4655;DHT22;2340;47.814;9.798;2023-03-04T12:56:25;12.70;99.90
4655;DHT22;2340;47.814;9.798;2023-03-04T12:58:51;13.50;99.90
4655;DHT22;2340;47.814;9.798;2023-03-04T13:01:19;14.40;99.90
4655;DHT22;2340;47.814;9.798;2023-03-04T13:09:08;16.30;99.90
4655;DHT22;2340;47.814;9.798;2023-03-04T13:11:41;16.70;99.90
4655;DHT22;2340;47.814;9.798;2023-03-04T13:18:59;17.40;99.90
4655;DHT22;2340;47.814;9.798;2023-03-04T13:21:28;17.90;99.90
4655;DHT22;2340;47.814;9.798;2023-03-04T13:23:55;18.30;99.90
4655;DHT22;2340;47.814;9.798;2023-03-04T13:26:34;18.10;99.90
4655;DHT22;2340;47.814;9.798;2023-03-04T13:34:57;18.20;99.90
4655;DHT22;2340;47.814;9.798;2023-03-04T13:37:28;18.20;99.90
4655;DHT22;2340;47.814;9.798;2023-03-04T13:42:39;17.60;99.90
4655;DHT22;2340;47.814;9.798;2023-03-04T13:45:27;17.40;99.90
4655;DHT22;2340;47.814;9.798;2023-03-04T13:47:51;17.20;99.90
4655;DHT22;2340;47.814;9.798;2023-03-04T13:50:24;16.90;99.90
4655;DHT22;2340;47.814;9.798;2023-03-04T13:52:51;16.10;99.90
4655;DHT22;2340;47.814;9.798;2023-03-04T13:58:07;15.10;99.90
4655;DHT22;2340;47.814;9.798;2023-03-04T14:00:43;14.10;99.90
4655;DHT22;2340;47.814;9.798;2023-03-04T14:03:13;13.70;99.90
4655;DHT22;2340;47.814;9.798;2023-03-04T14:05:44;13.30;99.90
4655;DHT22;2340;47.814;9.798;2023-03-04T14:08:18;13.10;99.90
4655;DHT22;2340;47.814;9.798;2023-03-04T14:10:53;12.80;99.90
4655;DHT22;2340;47.814;9.798;2023-03-04T14:13:18;12.50;99.90
4655;DHT22;2340;47.814;9.798;2023-03-04T14:15:47;12.40;99.90
4655;DHT22;2340;47.814;9.798;2023-03-04T14:18:17;12.20;99.90
4655;DHT22;2340;47.814;9.798;2023-03-04T14:20:47;12.20;99.90
4655;DHT22;2340;47.814;9.798;2023-03-04T14:25:48;12.40;99.90
4655;DHT22;2340;47.814;9.798;2023-03-04T14:28:15;12.80;99.90
4655;DHT22;2340;47.814;9.798;2023-03-04T14:30:41;12.80;99.90
4655;DHT22;2340;47.814;9.798;2023-03-04T14:33:07;12.60;99.90
4655;DHT22;2340;47.814;9.798;2023-03-04T14:35:33;12.80;99.90
4655;DHT22;2340;47.814;9.798;2023-03-04T14:38:07;13.20;99.90
4655;DHT22;2340;47.814;9.798;2023-03-04T14:40:40;13.30;99.90
4655;DHT22;2340;47.814;9.798;2023-03-04T14:45:42;12.70;99.90
4655;DHT22;2340;47.814;9.798;2023-03-04T14:48:11;12.40;99.90
4655;DHT22;2340;47.814;9.798;2023-03-04T14:50:46;12.30;99.90
4655;DHT22;2340;47.814;9.798;2023-03-04T14:53:13;12.20;99.90
4655;DHT22;2340;47.814;9.798;2023-03-04T14:55:39;12.10;99.90
4655;DHT22;2340;47.814;9.798;2023-03-04T14:58:19;11.90;99.90
4655;DHT22;2340;47.814;9.798;2023-03-04T15:00:45;11.80;99.90
4655;DHT22;2340;47.814;9.798;2023-03-04T15:03:29;11.80;99.90
4655;DHT22;2340;47.814;9.798;2023-03-04T15:06:05;11.90;99.90
4655;DHT22;2340;47.814;9.798;2023-03-04T15:08:33;11.80;99.90
4655;DHT22;2340;47.814;9.798;2023-03-04T15:11:00;11.70;99.90
4655;DHT22;2340;47.814;9.798;2023-03-04T15:13:39;11.90;99.90
4655;DHT22;2340;47.814;9.798;2023-03-04T15:16:05;12.10;99.90
4655;DHT22;2340;47.814;9.798;2023-03-04T15:18:31;12.30;99.90
4655;DHT22;2340;47.814;9.798;2023-03-04T15:21:00;12.20;99.90
4655;DHT22;2340;47.814;9.798;2023-03-04T15:23:27;12.20;99.90
4655;DHT22;2340;47.814;9.798;2023-03-04T15:25:55;12.30;99.90
4655;DHT22;2340;47.814;9.798;2023-03-04T15:28:21;12.30;99.90
4655;DHT22;2340;47.814;9.798;2023-03-04T15:30:47;12.30;99.90
4655;DHT22;2340;47.814;9.798;2023-03-04T15:33:12;12.40;99.90
4655;DHT22;2340;47.814;9.798;2023-03-04T15:35:38;12.40;99.90
4655;DHT22;2340;47.814;9.798;2023-03-04T15:38:07;12.50;99.90
4655;DHT22;2340;47.814;9.798;2023-03-04T15:40:33;12.50;99.90
4655;DHT22;2340;47.814;9.798;2023-03-04T15:43:00;12.40;99.90
4655;DHT22;2340;47.814;9.798;2023-03-04T15:45:27;12.30;99.90
4655;DHT22;2340;47.814;9.798;2023-03-04T15:47:53;12.20;99.90
4655;DHT22;2340;47.814;9.798;2023-03-04T15:50:19;12.30;99.90
4655;DHT22;2340;47.814;9.798;2023-03-04T15:52:45;12.20;99.90
4655;DHT22;2340;47.814;9.798;2023-03-04T15:55:17;12.10;99.90
4655;DHT22;2340;47.814;9.798;2023-03-04T15:57:44;12.10;99.90
4655;DHT22;2340;47.814;9.798;2023-03-04T16:00:10;11.50;99.90
4655;DHT22;2340;47.814;9.798;2023-03-04T16:02:36;11.20;99.90
4655;DHT22;2340;47.814;9.798;2023-03-04T16:05:01;10.90;99.90
4655;DHT22;2340;47.814;9.798;2023-03-04T16:07:28;10.70;99.90
4655;DHT22;2340;47.814;9.798;2023-03-04T16:09:58;10.40;99.90
4655;DHT22;2340;47.814;9.798;2023-03-04T16:12:25;10.30;99.90
4655;DHT22;2340;47.814;9.798;2023-03-04T16:14:51;9.90;99.90
4655;DHT22;2340;47.814;9.798;2023-03-04T16:17:17;9.70;99.90
4655;DHT22;2340;47.814;9.798;2023-03-04T16:19:43;9.50;99.90
4655;DHT22;2340;47.814;9.798;2023-03-04T16:22:11;9.30;99.90
4655;DHT22;2340;47.814;9.798;2023-03-04T16:24:37;9.10;99.90
4655;DHT22;2340;47.814;9.798;2023-03-04T16:27:04;8.90;99.90
4655;DHT22;2340;47.814;9.798;2023-03-04T16:29:30;8.60;99.90
4655;DHT22;2340;47.814;9.798;2023-03-04T16:31:55;8.50;99.90
4655;DHT22;2340;47.814;9.798;2023-03-04T16:34:21;8.30;99.90
4655;DHT22;2340;47.814;9.798;2023-03-04T16:36:46;8.20;99.90
4655;DHT22;2340;47.814;9.798;2023-03-04T16:39:30;8.00;99.90
4655;DHT22;2340;47.814;9.798;2023-03-04T16:41:55;7.70;99.90
4655;DHT22;2340;47.814;9.798;2023-03-04T16:44:21;7.50;99.90
4655;DHT22;2340;47.814;9.798;2023-03-04T16:46:46;7.30;99.90
4655;DHT22;2340;47.814;9.798;2023-03-04T16:49:12;7.20;99.90
4655;DHT22;2340;47.814;9.798;2023-03-04T16:51:42;7.00;99.90
4655;DHT22;2340;47.814;9.798;2023-03-04T16:54:16;6.90;99.90
4655;DHT22;2340;47.814;9.798;2023-03-04T16:56:42;6.70;99.90
4655;DHT22;2340;47.814;9.798;2023-03-04T16:59:10;6.60;99.90
4655;DHT22;2340;47.814;9.798;2023-03-04T17:01:38;6.60;99.90
4655;DHT22;2340;47.814;9.798;2023-03-04T17:04:03;6.40;99.90
4655;DHT22;2340;47.814;9.798;2023-03-04T17:06:29;6.30;99.90
4655;DHT22;2340;47.814;9.798;2023-03-04T17:08:54;6.20;99.90
4655;DHT22;2340;47.814;9.798;2023-03-04T17:11:21;6.10;99.90
4655;DHT22;2340;47.814;9.798;2023-03-04T17:13:47;6.10;99.90
4655;DHT22;2340;47.814;9.798;2023-03-04T17:16:13;6.00;99.90
4655;DHT22;2340;47.814;9.798;2023-03-04T17:18:39;5.90;99.90
4655;DHT22;2340;47.814;9.798;2023-03-04T17:21:06;5.80;99.90
4655;DHT22;2340;47.814;9.798;2023-03-04T17:23:32;5.70;99.90
4655;DHT22;2340;47.814;9.798;2023-03-04T17:25:59;5.50;99.90
4655;DHT22;2340;47.814;9.798;2023-03-04T17:28:24;5.40;99.90
4655;DHT22;2340;47.814;9.798;2023-03-04T17:30:50;5.40;99.90
4655;DHT22;2340;47.814;9.798;2023-03-04T17:33:15;5.20;99.90
4655;DHT22;2340;47.814;9.798;2023-03-04T17:35:41;5.20;99.90
4655;DHT22;2340;47.814;9.798;2023-03-04T17:38:07;5.10;99.90
4655;DHT22;2340;47.814;9.798;2023-03-04T17:40:32;5.00;99.90
4655;DHT22;2340;47.814;9.798;2023-03-04T17:42:58;5.00;99.90
4655;DHT22;2340;47.814;9.798;2023-03-04T17:45:23;4.90;99.90
4655;DHT22;2340;47.814;9.798;2023-03-04T17:47:49;4.80;99.90